No particular awareness of the weather is required.    There are no Weather-warnings


Meteo18 Weather Cam more information Meteo18 Weather Cam


Thunder radar more information blitzortung!


Rain radar more information rain snow radar


Visit our other weather sites:

Template documentation
and downloads

And another site



Weather Underground History page Text

Daily Summary for November 6, 2017 Units:  English    Metric   Both
« Previous Day
Next Day »
Daily Weekly Monthly Yearly Custom
  High: Low: Average:
Temperature: TemperatureC °F 3.1 °F 5.8 °F
Dew Point: DewpointC °F 1.1 °F 2.8 °F
Humidity: Humidity % 63 % 81 %
Wind Speed: WindSpeedKMH mph 0.0 mph 8 mph
Wind Gust: WindSpeedGustKMH mph - -
Wind:- - SSW
Pressure: PressurehPa in 1021.2 in -
Precipitation: 0.3 in    
Historical Graphs
 
 
Tabular Data for November 6, 2017
Time Temperature Dew Point Pressure Wind Wind Speed Wind Gust Humidity Rainfall Rate (Hourly)
TemperatureC °F DewpointC °F PressurehPa in Calm     Humidity % HourlyPrecipMM in
00:02 4.1 °F 2.6 °F 1021.2 in WNW 1.6 mph 9.7 mph 90 % 0.0 in
00:07 4.1 °F 2.8 °F 1021.2 in NW 3.2 mph 9.7 mph 91 % 0.0 in
00:12 4.0 °F 2.7 °F 1021.6 in Calm   9.7 mph 91 % 0.0 in
00:17 3.9 °F 2.6 °F 1021.6 in North 1.6 mph 9.7 mph 91 % 0.0 in
00:22 3.9 °F 2.6 °F 1021.6 in Calm   8.0 mph 91 % 0.0 in
00:32 3.9 °F 2.7 °F 1021.6 in WNW 4.8 mph 11.3 mph 92 % 0.0 in
00:37 3.9 °F 2.7 °F 1021.6 in West 4.8 mph 11.3 mph 92 % 0.0 in
00:42 3.9 °F 2.7 °F 1021.6 in NW 4.8 mph 11.3 mph 92 % 0.0 in
00:47 3.9 °F 2.7 °F 1021.6 in WNW 9.7 mph 14.5 mph 92 % 0.0 in
00:52 3.9 °F 2.7 °F 1021.6 in WNW 6.4 mph 14.5 mph 92 % 0.0 in
01:02 3.8 °F 2.6 °F 1021.6 in WNW 1.6 mph 14.5 mph 92 % 0.0 in
01:07 3.8 °F 2.6 °F 1021.6 in NW 1.6 mph 14.5 mph 92 % 0.0 in
01:12 3.7 °F 2.5 °F 1021.6 in NW 1.6 mph 11.3 mph 92 % 0.0 in
01:17 3.7 °F 2.5 °F 1021.6 in NNW 3.2 mph 9.7 mph 92 % 0.0 in
01:22 3.6 °F 2.4 °F 1021.6 in WNW 3.2 mph 8.0 mph 92 % 0.0 in
01:32 3.6 °F 2.6 °F 1021.6 in Calm   9.7 mph 93 % 0.0 in
01:37 3.7 °F 2.7 °F 1021.6 in WSW 4.8 mph 9.7 mph 93 % 0.0 in
01:42 3.6 °F 2.6 °F 1021.6 in North 1.6 mph 9.7 mph 93 % 0.0 in
01:47 3.6 °F 2.6 °F 1021.6 in NW 4.8 mph 9.7 mph 93 % 0.0 in
01:52 3.7 °F 2.7 °F 1021.6 in North 1.6 mph 8.0 mph 93 % 0.0 in
01:57 3.6 °F 2.6 °F 1021.6 in NNW 3.2 mph 9.7 mph 93 % 0.0 in
02:02 3.6 °F 2.6 °F 1021.9 in NW 1.6 mph 9.7 mph 93 % 0.0 in
02:07 3.6 °F 2.6 °F 1021.9 in NW 1.6 mph 8.0 mph 93 % 0.0 in
02:12 3.6 °F 2.6 °F 1021.9 in NW 3.2 mph 8.0 mph 93 % 0.0 in
02:17 3.5 °F 2.5 °F 1021.9 in NNW 1.6 mph 8.0 mph 93 % 0.0 in
02:22 3.4 °F 2.4 °F 1022.2 in North 3.2 mph 8.0 mph 93 % 0.0 in
02:32 3.6 °F 2.7 °F 1021.9 in NNW 3.2 mph 11.3 mph 94 % 0.0 in
02:37 3.5 °F 2.6 °F 1021.9 in NW 4.8 mph 11.3 mph 94 % 0.0 in
02:42 3.5 °F 2.6 °F 1021.9 in NW 1.6 mph 11.3 mph 94 % 0.0 in
02:47 3.5 °F 2.6 °F 1021.9 in WNW 4.8 mph 9.7 mph 94 % 0.0 in
02:52 3.5 °F 2.6 °F 1021.9 in NW 1.6 mph 9.7 mph 94 % 0.0 in
02:57 3.6 °F 2.7 °F 1022.2 in Calm   9.7 mph 94 % 0.0 in
03:02 3.6 °F 2.7 °F 1022.2 in WNW 1.6 mph 11.3 mph 94 % 0.0 in
03:07 3.6 °F 2.7 °F 1022.2 in WNW 1.6 mph 11.3 mph 94 % 0.0 in
03:12 3.7 °F 2.8 °F 1021.9 in NW 1.6 mph 8.0 mph 94 % 0.0 in
03:17 3.7 °F 2.8 °F 1022.2 in WNW 4.8 mph 9.7 mph 94 % 0.0 in
03:22 3.7 °F 2.8 °F 1022.2 in NNW 8.0 mph 9.7 mph 94 % 0.0 in
03:27 3.7 °F 2.8 °F 1021.9 in WNW 3.2 mph 9.7 mph 94 % 0.0 in
03:32 3.7 °F 2.8 °F 1021.9 in Calm   9.7 mph 94 % 0.0 in
03:37 3.6 °F 2.7 °F 1021.9 in NNE 1.6 mph 9.7 mph 94 % 0.0 in
03:42 3.6 °F 2.7 °F 1022.2 in West 3.2 mph 8.0 mph 94 % 0.0 in
03:47 3.1 °F 2.2 °F 1022.2 in WNW 4.8 mph 8.0 mph 94 % 0.0 in
08:27 3.4 °F 2.5 °F 1024.3 in WNW 1.6 mph 8.0 mph 94 % 0.0 in
08:32 3.5 °F 2.6 °F 1024.3 in NW 1.6 mph 8.0 mph 94 % 0.0 in
08:42 3.6 °F 2.7 °F 1024.3 in North 6.4 mph 8.0 mph 94 % 0.0 in
08:47 3.7 °F 2.8 °F 1024.3 in North 3.2 mph 9.7 mph 94 % 0.0 in
08:52 3.8 °F 2.8 °F 1024.3 in NW 1.6 mph 11.3 mph 93 % 0.0 in
09:02 3.9 °F 2.9 °F 1024.6 in WNW 6.4 mph 12.9 mph 93 % 0.0 in
09:12 4.2 °F 3.2 °F 1024.6 in North 3.2 mph 12.9 mph 93 % 0.3 in
09:17 4.4 °F 3.4 °F 1024.6 in North 6.4 mph 12.9 mph 93 % 0.3 in
09:22 4.5 °F 3.5 °F 1024.6 in NW 11.3 mph 17.7 mph 93 % 0.3 in
09:27 4.6 °F 3.6 °F 1024.6 in NW 12.9 mph 17.7 mph 93 % 0.3 in
09:32 4.8 °F 3.8 °F 1024.6 in NNW 8.0 mph 17.7 mph 93 % 0.3 in
09:42 5.2 °F 4.0 °F 1024.9 in NNW 4.8 mph 16.1 mph 92 % 0.3 in
09:47 5.3 °F 4.0 °F 1024.9 in NW 4.8 mph 19.3 mph 91 % 0.3 in
09:52 5.4 °F 4.0 °F 1024.9 in North 20.9 mph 20.9 mph 91 % 0.3 in
09:57 5.5 °F 4.0 °F 1024.9 in NNW 9.7 mph 20.9 mph 90 % 0.3 in
10:02 5.5 °F 4.0 °F 1024.9 in NNW 17.7 mph 24.1 mph 90 % 0.3 in
10:12 5.4 °F 3.9 °F 1024.9 in NNE 9.7 mph 24.1 mph 90 % 0.0 in
10:17 5.4 °F 3.9 °F 1024.9 in NW 8.0 mph 24.1 mph 90 % 0.0 in
10:22 5.6 °F 4.1 °F 1024.6 in NNW 16.1 mph 24.1 mph 90 % 0.0 in
10:27 5.5 °F 3.8 °F 1024.6 in NNE 14.5 mph 24.1 mph 89 % 0.0 in
10:32 5.6 °F 4.1 °F 1024.9 in NE 16.1 mph 30.6 mph 90 % 0.0 in
10:37 5.7 °F 4.0 °F 1024.6 in NNE 8.0 mph 30.6 mph 89 % 0.0 in
10:42 5.7 °F 3.9 °F 1024.6 in North 17.7 mph 29.0 mph 88 % 0.0 in
10:47 5.6 °F 3.9 °F 1024.9 in NNW 9.7 mph 29.0 mph 89 % 0.0 in
10:52 5.7 °F 4.0 °F 1024.9 in NNW 8.0 mph 30.6 mph 89 % 0.0 in
10:57 5.7 °F 4.0 °F 1024.9 in WNW 12.9 mph 30.6 mph 89 % 0.0 in
11:02 5.9 °F 4.2 °F 1024.9 in NNW 6.4 mph 30.6 mph 89 % 0.0 in
11:07 6.1 °F 4.4 °F 1024.9 in NNW 11.3 mph 30.6 mph 89 % 0.0 in
11:12 6.3 °F 4.5 °F 1024.9 in NNE 17.7 mph 25.7 mph 88 % 0.0 in
11:17 6.4 °F 4.4 °F 1024.9 in North 16.1 mph 25.7 mph 87 % 0.0 in
11:22 6.5 °F 4.3 °F 1024.9 in NE 22.5 mph 25.7 mph 86 % 0.0 in
11:27 6.6 °F 4.6 °F 1024.9 in NE 22.5 mph 27.4 mph 87 % 0.0 in
11:32 6.9 °F 4.7 °F 1024.9 in NNE 25.7 mph 32.2 mph 86 % 0.0 in
11:37 7.1 °F 4.7 °F 1024.9 in NE 12.9 mph 32.2 mph 85 % 0.0 in
11:42 7.2 °F 4.8 °F 1024.9 in NNE 14.5 mph 32.2 mph 85 % 0.0 in
11:47 7.2 °F 4.7 °F 1024.9 in NNW 20.9 mph 30.6 mph 84 % 0.0 in
11:52 7.2 °F 4.8 °F 1024.9 in ENE 9.7 mph 30.6 mph 85 % 0.0 in
11:57 7.3 °F 4.8 °F 1024.9 in NNE 22.5 mph 30.6 mph 84 % 0.0 in
12:02 7.4 °F 4.9 °F 1024.9 in North 14.5 mph 29.0 mph 84 % 0.0 in
12:07 7.3 °F 4.6 °F 1024.9 in NE 8.0 mph 25.7 mph 83 % 0.0 in
12:12 7.6 °F 5.1 °F 1024.6 in ENE 14.5 mph 25.7 mph 84 % 0.0 in
12:17 7.7 °F 4.6 °F 1024.6 in North 12.9 mph 32.2 mph 81 % 0.0 in
12:22 7.9 °F 5.2 °F 1024.6 in West 8.0 mph 32.2 mph 83 % 0.0 in
12:27 8.2 °F 5.0 °F 1024.6 in NNW 12.9 mph 32.2 mph 80 % 0.0 in
12:32 8.2 °F 4.8 °F 1024.6 in NE 6.4 mph 24.1 mph 79 % 0.0 in
12:42 8.1 °F 4.3 °F 1024.6 in NE 12.9 mph 32.2 mph 77 % 0.0 in
12:47 8.2 °F 4.4 °F 1024.3 in NNW 9.7 mph 27.4 mph 77 % 0.0 in
12:52 8.2 °F 4.2 °F 1024.3 in ENE 16.1 mph 29.0 mph 76 % 0.0 in
12:57 8.3 °F 4.1 °F 1024.3 in NNW 16.1 mph 32.2 mph 75 % 0.0 in
13:02 8.6 °F 4.2 °F 1024.3 in North 17.7 mph 32.2 mph 74 % 0.0 in
13:07 8.5 °F 4.3 °F 1024.3 in North 14.5 mph 32.2 mph 75 % 0.0 in
13:12 8.5 °F 4.3 °F 1024.3 in North 9.7 mph 29.0 mph 75 % 0.0 in
13:17 8.4 °F 4.2 °F 1024.3 in North 20.9 mph 27.4 mph 75 % 0.0 in
13:22 8.4 °F 4.2 °F 1024.3 in NNE 12.9 mph 30.6 mph 75 % 0.0 in
13:27 8.5 °F 4.3 °F 1024.3 in NE 6.4 mph 30.6 mph 75 % 0.0 in
13:32 8.7 °F 4.3 °F 1024.3 in NE 16.1 mph 30.6 mph 74 % 0.0 in
13:37 8.8 °F 4.0 °F 1024.3 in NNE 17.7 mph 25.7 mph 72 % 0.0 in
13:42 8.8 °F 2.8 °F 1024.3 in North 12.9 mph 33.8 mph 66 % 0.0 in
13:47 8.8 °F 2.8 °F 1024.3 in NE 22.5 mph 40.2 mph 66 % 0.0 in
13:52 8.7 °F 3.3 °F 1024.3 in North 14.5 mph 40.2 mph 69 % 0.0 in
13:57 8.6 °F 3.6 °F 1024.3 in ENE 12.9 mph 40.2 mph 71 % 0.0 in
14:02 8.6 °F 3.4 °F 1024.3 in NNW 8.0 mph 35.4 mph 70 % 0.0 in
14:07 8.8 °F 3.4 °F 1024.3 in NNW 8.0 mph 25.7 mph 69 % 0.0 in
14:12 8.9 °F 3.1 °F 1024.3 in NNW 16.1 mph 27.4 mph 67 % 0.0 in
14:17 9.1 °F 3.5 °F 1024.3 in North 9.7 mph 30.6 mph 68 % 0.0 in
14:22 9.0 °F 3.2 °F 1024.3 in NE 14.5 mph 30.6 mph 67 % 0.0 in
14:32 9.1 °F 3.1 °F 1024.3 in NW 16.1 mph 27.4 mph 66 % 0.0 in
14:37 8.7 °F 2.5 °F 1024.3 in NNW 16.1 mph 30.6 mph 65 % 0.0 in
14:42 8.8 °F 2.4 °F 1024.3 in NE 16.1 mph 30.6 mph 64 % 0.0 in
14:47 8.9 °F 2.2 °F 1024.3 in ENE 9.7 mph 30.6 mph 63 % 0.0 in
14:57 8.9 °F 2.5 °F 1024.3 in NNW 8.0 mph 32.2 mph 64 % 0.0 in
15:02 9.1 °F 2.9 °F 1024.3 in NE 11.3 mph 32.2 mph 65 % 0.0 in
15:07 9.2 °F 3.2 °F 1024.3 in NW 6.4 mph 32.2 mph 66 % 0.0 in
15:12 9.3 °F 2.8 °F 1024.3 in NNE 25.7 mph 27.4 mph 64 % 0.0 in
15:22 9.2 °F 3.0 °F 1024.3 in NW 4.8 mph 27.4 mph 65 % 0.0 in
15:27 9.3 °F 3.1 °F 1024.3 in North 22.5 mph 27.4 mph 65 % 0.0 in
15:32 9.3 °F 2.8 °F 1024.3 in North 9.7 mph 25.7 mph 64 % 0.0 in
15:42 9.2 °F 2.7 °F 1024.3 in NNE 8.0 mph 30.6 mph 64 % 0.0 in
15:47 9.1 °F 2.9 °F 1024.3 in NE 8.0 mph 30.6 mph 65 % 0.0 in
15:52 9.0 °F 2.8 °F 1024.3 in NNE 11.3 mph 30.6 mph 65 % 0.0 in
15:57 8.8 °F 2.8 °F 1024.3 in NNW 11.3 mph 25.7 mph 66 % 0.0 in
16:02 8.7 °F 2.9 °F 1024.3 in NW 8.0 mph 29.0 mph 67 % 0.0 in
16:12 8.6 °F 2.8 °F 1024.3 in NW 12.9 mph 29.0 mph 67 % 0.0 in
16:17 8.6 °F 2.8 °F 1024.3 in NNE 12.9 mph 29.0 mph 67 % 0.0 in
16:22 8.6 °F 3.0 °F 1024.3 in North 6.4 mph 29.0 mph 68 % 0.0 in
16:27 8.6 °F 3.0 °F 1024.3 in North 12.9 mph 24.1 mph 68 % 0.0 in
16:32 8.4 °F 2.8 °F 1024.3 in NNE 8.0 mph 17.7 mph 68 % 0.0 in
16:37 8.3 °F 2.9 °F 1024.3 in NNE 12.9 mph 24.1 mph 69 % 0.0 in
16:42 8.2 °F 2.9 °F 1024.3 in North 11.3 mph 24.1 mph 69 % 0.0 in
16:47 8.1 °F 3.0 °F 1024.3 in ENE 11.3 mph 24.1 mph 70 % 0.0 in
16:52 8.1 °F 3.0 °F 1024.3 in NE 6.4 mph 19.3 mph 70 % 0.0 in
16:57 8.1 °F 3.0 °F 1024.3 in NNE 3.2 mph 17.7 mph 70 % 0.0 in
17:02 7.9 °F 3.0 °F 1024.3 in East 11.3 mph 16.1 mph 71 % 0.0 in
17:07 7.8 °F 2.9 °F 1024.3 in North 12.9 mph 16.1 mph 71 % 0.0 in
17:12 7.7 °F 2.8 °F 1024.3 in NNW 4.8 mph 17.7 mph 71 % 0.0 in
17:17 7.4 °F 2.7 °F 1024.6 in North 6.4 mph 19.3 mph 72 % 0.0 in
17:22 7.3 °F 2.4 °F 1024.6 in NNE 8.0 mph 22.5 mph 71 % 0.0 in
17:32 7.2 °F 2.5 °F 1024.6 in NNW 4.8 mph 20.9 mph 72 % 0.0 in
17:37 7.2 °F 2.5 °F 1024.6 in NNW 9.7 mph 20.9 mph 72 % 0.0 in
17:42 7.2 °F 2.5 °F 1024.6 in NNW 9.7 mph 19.3 mph 72 % 0.0 in
17:47 7.1 °F 2.4 °F 1024.6 in NNW 3.2 mph 19.3 mph 72 % 0.0 in
17:52 6.9 °F 2.2 °F 1024.6 in NNW 8.0 mph 16.1 mph 72 % 0.0 in
17:57 6.9 °F 2.2 °F 1024.6 in NNW 6.4 mph 17.7 mph 72 % 0.0 in
18:07 6.7 °F 2.2 °F 1024.9 in NNW 6.4 mph 17.7 mph 73 % 0.0 in
18:12 6.7 °F 2.2 °F 1024.9 in NW 4.8 mph 19.3 mph 73 % 0.0 in
18:17 6.7 °F 2.2 °F 1024.9 in NE 11.3 mph 19.3 mph 73 % 0.0 in
18:22 6.6 °F 2.1 °F 1024.9 in NW 9.7 mph 19.3 mph 73 % 0.0 in
18:32 6.3 °F 2.0 °F 1024.9 in NNW 4.8 mph 17.7 mph 74 % 0.0 in
18:42 6.1 °F 2.0 °F 1024.9 in NNE 3.2 mph 14.5 mph 75 % 0.0 in
18:47 6.1 °F 1.8 °F 1025.3 in NNW 8.0 mph 14.5 mph 74 % 0.0 in
18:52 6.0 °F 1.9 °F 1025.3 in NNW 4.8 mph 20.9 mph 75 % 0.0 in
18:57 5.9 °F 1.8 °F 1025.3 in NNW 9.7 mph 20.9 mph 75 % 0.0 in
19:02 5.9 °F 1.8 °F 1025.3 in Calm   14.5 mph 75 % 0.0 in
19:07 5.9 °F 1.8 °F 1025.3 in North 8.0 mph 14.5 mph 75 % 0.0 in
19:12 5.8 °F 1.7 °F 1025.6 in NE 3.2 mph 14.5 mph 75 % 0.0 in
19:17 5.7 °F 1.8 °F 1025.3 in NE 3.2 mph 14.5 mph 76 % 0.0 in
19:22 5.7 °F 1.8 °F 1025.6 in ENE 4.8 mph 12.9 mph 76 % 0.0 in
19:32 5.5 °F 1.8 °F 1025.6 in NE 4.8 mph 9.7 mph 77 % 0.0 in
19:37 5.5 °F 1.8 °F 1025.6 in North 3.2 mph 9.7 mph 77 % 0.0 in
19:42 5.5 °F 1.8 °F 1025.6 in North 6.4 mph 11.3 mph 77 % 0.0 in
19:47 5.4 °F 1.9 °F 1026.0 in NE 4.8 mph 11.3 mph 78 % 0.0 in
19:52 5.1 °F 1.8 °F 1026.0 in ENE 4.8 mph 11.3 mph 79 % 0.0 in
20:02 4.8 °F 1.6 °F 1025.6 in Calm   12.9 mph 80 % 0.0 in
20:07 4.7 °F 1.5 °F 1025.6 in NE 1.6 mph 12.9 mph 80 % 0.0 in
20:12 4.6 °F 1.6 °F 1025.6 in NNE 3.2 mph 11.3 mph 81 % 0.0 in
20:17 4.5 °F 1.5 °F 1025.6 in NNW 1.6 mph 8.0 mph 81 % 0.0 in
20:22 4.6 °F 1.6 °F 1025.6 in North 3.2 mph 9.7 mph 81 % 0.0 in
20:32 4.7 °F 1.7 °F 1025.6 in NNW 4.8 mph 14.5 mph 81 % 0.0 in
20:37 4.8 °F 1.6 °F 1025.6 in North 6.4 mph 14.5 mph 80 % 0.0 in
20:47 4.4 °F 1.4 °F 1025.6 in North 8.0 mph 11.3 mph 81 % 0.0 in
20:52 4.2 °F 1.4 °F 1025.6 in NNW 9.7 mph 11.3 mph 82 % 0.0 in
20:57 4.1 °F 1.3 °F 1025.6 in NNW 3.2 mph 11.3 mph 82 % 0.0 in
21:02 4.1 °F 1.5 °F 1025.6 in NNW 6.4 mph 9.7 mph 83 % 0.0 in
21:12 4.3 °F 1.7 °F 1025.6 in NW 3.2 mph 11.3 mph 83 % 0.0 in
21:17 4.4 °F 1.8 °F 1025.3 in NNW 3.2 mph 11.3 mph 83 % 0.0 in
21:22 4.6 °F 1.8 °F 1025.3 in North 11.3 mph 12.9 mph 82 % 0.0 in
21:27 4.7 °F 1.7 °F 1025.6 in NNW 3.2 mph 14.5 mph 81 % 0.0 in
21:32 4.6 °F 1.8 °F 1025.3 in NNW 4.8 mph 14.5 mph 82 % 0.0 in
21:37 4.6 °F 1.8 °F 1025.3 in NNW 6.4 mph 11.3 mph 82 % 0.0 in
21:42 4.6 °F 1.8 °F 1025.3 in NNW 9.7 mph 14.5 mph 82 % 0.0 in
21:47 4.7 °F 1.9 °F 1025.3 in North 8.0 mph 14.5 mph 82 % 0.0 in
21:57 4.7 °F 2.1 °F 1025.3 in NNE 6.4 mph 12.9 mph 83 % 0.0 in
22:02 4.9 °F 2.1 °F 1025.3 in NNW 4.8 mph 14.5 mph 82 % 0.0 in
22:07 4.8 °F 1.8 °F 1025.3 in Calm   16.1 mph 81 % 0.0 in
22:12 4.7 °F 1.7 °F 1025.3 in North 8.0 mph 16.1 mph 81 % 0.0 in
22:17 4.7 °F 1.9 °F 1025.3 in NNW 6.4 mph 14.5 mph 82 % 0.0 in
22:22 4.6 °F 1.8 °F 1025.3 in NNE 6.4 mph 12.9 mph 82 % 0.0 in
22:27 4.4 °F 1.6 °F 1025.3 in NNW 3.2 mph 12.9 mph 82 % 0.0 in
22:37 4.3 °F 1.7 °F 1024.9 in North 6.4 mph 12.9 mph 83 % 0.0 in
22:42 4.3 °F 1.5 °F 1024.9 in NNE 9.7 mph 14.5 mph 82 % 0.0 in
22:52 4.2 °F 1.6 °F 1024.9 in North 6.4 mph 14.5 mph 83 % 0.0 in
22:57 4.1 °F 1.5 °F 1024.9 in NNW 3.2 mph 16.1 mph 83 % 0.0 in
23:07 3.9 °F 1.3 °F 1024.9 in NNE 8.0 mph 16.1 mph 83 % 0.0 in
23:12 3.9 °F 1.4 °F 1024.9 in NNE 12.9 mph 12.9 mph 84 % 0.0 in
23:17 3.9 °F 1.4 °F 1024.9 in North 6.4 mph 14.5 mph 84 % 0.0 in
23:22 3.9 °F 1.4 °F 1024.6 in NNW 8.0 mph 16.1 mph 84 % 0.0 in
23:27 3.8 °F 1.3 °F 1024.6 in NNW 4.8 mph 16.1 mph 84 % 0.0 in
23:32 3.8 °F 1.3 °F 1024.6 in WNW 9.7 mph 14.5 mph 84 % 0.0 in
23:37 3.7 °F 1.2 °F 1024.6 in NNE 4.8 mph 14.5 mph 84 % 0.0 in
23:42 3.7 °F 1.2 °F 1024.3 in NNW 1.6 mph 14.5 mph 84 % 0.0 in
23:47 3.6 °F 1.2 °F 1024.6 in NNW 4.8 mph 11.3 mph 84 % 0.0 in
23:52 3.4 °F 1.1 °F 1024.6 in NNW 4.8 mph 11.3 mph 85 % 0.0 in
23:57 3.4 °F 1.1 °F 1024.3 in NNW 3.2 mph 11.3 mph 85 % 0.0 in
Meteo18
Compliments of Weather Underground - 4 mb

Script developed by  Jim McMurry - jmcmurry@mwt.net Adapted for the template by  Wim van der Kuil - Leuven-Template.eu

You find our weather info also at:

European Weather Network

Weather Underground

Equipment we use:

Weather-station
Davis Vue

Weather-program
Meteobridge

Weather-server
Raspberry PI 2 B+

Provider
1 and 1

Davis Vue

Meteobridge

Raspberry PI 2 B+

1 and 1